Chifeng, China
Current Conditions -  °F | °C
As of 2:00 AM on Tuesday 25 Nov 2014 (Local Time) from ZBAA Reporting Station
Clear Clear  
Wind Chill: 25°   Ceiling: Unl
Heat Index: 30°   Visibility: 5mi
Dew Point: 25°   Wind: 4mph
Humidity: 80%   Direction: 60°ENE
Pressure: 30.27"   Gusts: NA
Location:  42.27°N, 118.95°E
Report Text: ZBAA 241800Z 06002MPS 030V090 8000 NSC M01/M04 Q1025 NOSIG
Loading
Personal Weather Stations






























Interactive Weather Map New forecast layout! Learn more

10-Day Weather Forecast

Advertisements
Track Severe Weather on mobile